createdAt,value
2019-04-25T00:02:22.339Z,63.64
2019-04-25T00:04:53.485Z,63.83
2019-04-25T00:07:24.314Z,63.77
2019-04-25T00:09:55.566Z,63.75
2019-04-25T00:12:26.429Z,64.17
2019-04-25T00:15:01.267Z,64.19
2019-04-25T00:17:33.241Z,64.00
2019-04-25T00:20:04.855Z,64.31
2019-04-25T00:22:37.389Z,64.54
2019-04-25T00:25:15.965Z,64.56
2019-04-25T00:27:43.568Z,64.64
2019-04-25T00:30:14.820Z,64.89
2019-04-25T00:32:45.525Z,65.14
2019-04-25T00:35:16.472Z,65.19
2019-04-25T00:37:47.824Z,64.92
2019-04-25T00:40:18.803Z,65.34
2019-04-25T00:42:50.675Z,65.27
2019-04-25T00:45:22.292Z,65.37
2019-04-25T00:47:53.462Z,65.23
2019-04-25T00:50:24.431Z,65.40
2019-04-25T00:52:55.084Z,65.47
2019-04-25T00:55:28.804Z,65.81
2019-04-25T00:58:01.380Z,65.93
2019-04-25T01:00:35.161Z,66.24
2019-04-25T01:03:11.238Z,66.09
2019-04-25T01:05:44.300Z,65.94
2019-04-25T01:08:14.881Z,66.43
2019-04-25T01:10:46.221Z,66.42
2019-04-25T01:13:17.451Z,66.81
2019-04-25T01:15:48.502Z,66.70
2019-04-25T01:18:19.487Z,66.78
2019-04-25T01:20:51.165Z,66.77
2019-04-25T01:23:23.656Z,66.88
2019-04-25T01:25:54.687Z,66.87
2019-04-25T01:28:25.713Z,66.85
2019-04-25T01:30:56.452Z,66.86
2019-04-25T01:33:28.124Z,67.03
2019-04-25T01:36:03.624Z,67.13
2019-04-25T01:38:53.627Z,67.41
2019-04-25T01:41:25.596Z,67.50
2019-04-25T01:44:00.645Z,67.38
2019-04-25T01:46:31.585Z,67.58
2019-04-25T01:49:04.234Z,67.63
2019-04-25T01:51:35.088Z,67.24
2019-04-25T01:54:05.979Z,67.49
2019-04-25T01:56:36.550Z,67.54
2019-04-25T01:59:07.294Z,67.80
2019-04-25T02:01:39.721Z,68.00
2019-04-25T02:04:11.096Z,68.10
2019-04-25T02:06:43.057Z,67.74
2019-04-25T02:09:14.722Z,68.03
2019-04-25T02:11:54.730Z,68.23
2019-04-25T02:14:26.538Z,68.26
2019-04-25T02:16:59.041Z,68.32
2019-04-25T02:19:29.872Z,68.70
2019-04-25T02:22:02.470Z,68.40
2019-04-25T02:24:34.013Z,68.58
2019-04-25T02:27:04.862Z,68.25
2019-04-25T02:29:35.583Z,68.46
2019-04-25T02:32:09.052Z,68.14
2019-04-25T02:34:39.113Z,68.13
2019-04-25T02:37:09.889Z,68.56
2019-04-25T02:39:40.552Z,68.35
2019-04-25T02:42:11.375Z,68.95
2019-04-25T02:44:44.510Z,68.92
2019-04-25T02:47:34.465Z,69.00
2019-04-25T02:50:15.129Z,69.17
2019-04-25T02:52:47.848Z,69.15
2019-04-25T02:55:30.999Z,68.85
2019-04-25T02:57:50.893Z,68.73
2019-04-25T03:00:45.341Z,69.29
2019-04-25T03:03:01.257Z,69.36
2019-04-25T03:05:32.034Z,69.58
2019-04-25T03:08:07.953Z,70.20
2019-04-25T03:13:15.312Z,70.10
2019-04-25T03:15:46.977Z,71.43
2019-04-25T03:18:19.285Z,72.46
2019-04-25T03:20:54.931Z,72.27
2019-04-25T03:23:30.341Z,72.75
2019-04-25T03:26:04.711Z,72.24
2019-04-25T03:28:35.746Z,72.14
2019-04-25T03:31:12.763Z,72.25
2019-04-25T03:33:38.908Z,72.03
2019-04-25T03:36:09.650Z,73.01
2019-04-25T03:38:40.628Z,72.54
2019-04-25T03:41:11.448Z,72.59
2019-04-25T03:43:44.133Z,73.54
2019-04-25T03:46:14.832Z,73.21
2019-04-25T03:48:45.572Z,73.22
2019-04-25T03:51:16.363Z,73.79
2019-04-25T03:53:46.992Z,73.79
2019-04-25T03:56:17.701Z,73.54
2019-04-25T03:58:50.734Z,74.09
2019-04-25T04:01:24.520Z,74.41
2019-04-25T04:03:55.928Z,74.18
2019-04-25T04:06:26.829Z,74.54
2019-04-25T04:08:57.542Z,73.54
2019-04-25T04:11:28.427Z,74.09
2019-04-25T04:13:59.006Z,73.62
2019-04-25T04:16:44.304Z,72.94
2019-04-25T04:19:24.042Z,71.00
2019-04-25T04:21:56.529Z,73.02
2019-04-25T04:24:29.831Z,72.48
2019-04-25T04:27:09.116Z,71.36
2019-04-25T04:29:39.550Z,71.27
2019-04-25T04:32:10.568Z,71.08
2019-04-25T04:34:41.388Z,70.67
2019-04-25T04:37:13.944Z,70.19
2019-04-25T04:39:44.537Z,69.82
2019-04-25T04:42:16.073Z,68.98
2019-04-25T04:44:46.877Z,69.22
2019-04-25T04:47:17.462Z,69.14
2019-04-25T04:49:48.211Z,69.08
2019-04-25T04:52:19.097Z,69.07
2019-04-25T04:54:57.686Z,69.11
2019-04-25T04:57:32.267Z,68.73
2019-04-25T04:59:54.975Z,69.03
2019-04-25T05:02:33.710Z,68.69
2019-04-25T05:05:06.806Z,68.29
2019-04-25T05:07:53.860Z,68.16
2019-04-25T05:10:24.990Z,67.76
2019-04-25T05:12:55.936Z,67.54
2019-04-25T05:15:26.845Z,67.28
2019-04-25T05:17:58.302Z,66.81
2019-04-25T05:20:28.944Z,66.70
2019-04-25T05:22:59.546Z,66.13
2019-04-25T05:25:30.772Z,66.38
2019-04-25T05:28:05.116Z,65.91
2019-04-25T05:30:40.745Z,65.48
2019-04-25T05:33:11.608Z,65.48
2019-04-25T05:35:43.773Z,65.74
2019-04-25T05:38:16.338Z,65.04
2019-04-25T05:40:50.430Z,65.26
2019-04-25T05:43:21.476Z,64.66
2019-04-25T05:45:52.040Z,64.77
2019-04-25T05:48:25.068Z,64.65
2019-04-25T05:50:55.243Z,63.98
2019-04-25T05:53:26.356Z,63.69
2019-04-25T05:55:57.733Z,63.54
2019-04-25T05:58:28.605Z,63.42
2019-04-25T06:01:00.522Z,63.34
2019-04-25T06:03:31.688Z,63.03
2019-04-25T06:06:03.483Z,62.91
2019-04-25T06:08:37.820Z,62.26
2019-04-25T06:11:18.084Z,62.40
2019-04-25T06:13:53.784Z,61.82
2019-04-25T06:16:28.281Z,61.89
2019-04-25T06:19:14.203Z,61.18
2019-04-25T06:21:43.511Z,60.44
2019-04-25T06:24:20.472Z,60.91
2019-04-25T06:26:53.911Z,60.21
2019-04-25T06:29:24.856Z,59.46
2019-04-25T06:32:05.714Z,59.51
2019-04-25T06:34:31.693Z,58.92
2019-04-25T06:37:04.255Z,58.94
2019-04-25T06:39:34.141Z,59.93
2019-04-25T06:42:06.064Z,58.69
2019-04-25T06:44:43.224Z,58.42
2019-04-25T06:47:29.572Z,58.36
2019-04-25T06:50:00.314Z,57.52
2019-04-25T06:52:32.053Z,57.23
2019-04-25T06:55:16.927Z,56.79
2019-04-25T06:57:54.416Z,55.34
2019-04-25T07:00:29.488Z,55.80
2019-04-25T07:03:01.234Z,49.07
2019-04-25T07:05:40.287Z,45.28
2019-04-25T07:08:07.679Z,42.39
2019-04-25T07:10:39.289Z,41.17
2019-04-25T07:13:10.230Z,39.58
2019-04-25T07:15:41.399Z,37.96
2019-04-25T07:18:14.097Z,34.92
2019-04-25T07:20:45.445Z,33.44
2019-04-25T07:23:17.082Z,34.06
2019-04-25T07:25:50.549Z,31.26
2019-04-25T07:28:36.087Z,29.89
2019-04-25T07:31:13.324Z,30.23
2019-04-25T07:33:49.716Z,30.39
2019-04-25T07:36:23.248Z,31.47
2019-04-25T07:39:05.775Z,30.10
2019-04-25T07:41:36.749Z,29.26
2019-04-25T07:44:07.384Z,26.95
2019-04-25T07:46:39.957Z,27.77
2019-04-25T07:49:13.365Z,26.62
2019-04-25T07:51:46.973Z,26.79
2019-04-25T07:54:18.008Z,27.29
2019-04-25T07:56:51.642Z,27.58
2019-04-25T07:59:25.533Z,26.75
2019-04-25T08:01:59.653Z,25.72
2019-04-25T08:04:31.774Z,24.83
2019-04-25T08:07:04.949Z,25.34
2019-04-25T08:09:37.978Z,25.25
2019-04-25T08:12:09.323Z,25.48
2019-04-25T08:14:41.742Z,27.98
2019-04-25T08:17:16.295Z,27.09
2019-04-25T08:20:01.939Z,26.41
2019-04-25T08:22:42.912Z,26.82
2019-04-25T08:25:11.093Z,28.91
2019-04-25T08:27:41.862Z,28.15
2019-04-25T08:30:16.019Z,27.39
2019-04-25T08:32:49.472Z,26.56
2019-04-25T08:35:21.479Z,26.46
2019-04-25T08:37:54.275Z,25.27
2019-04-25T08:40:32.471Z,25.33
2019-04-25T08:43:06.548Z,25.74
2019-04-25T08:45:39.961Z,26.24
2019-04-25T08:48:13.621Z,26.40
2019-04-25T08:51:03.674Z,26.64
2019-04-25T08:53:38.697Z,26.79
2019-04-25T08:56:15.313Z,24.91
2019-04-25T08:59:03.332Z,25.15
2019-04-25T09:01:34.901Z,26.14
2019-04-25T09:04:10.733Z,26.87
2019-04-25T09:06:44.342Z,25.37
2019-04-25T09:09:16.672Z,25.29
2019-04-25T09:11:49.192Z,24.32
2019-04-25T09:14:22.053Z,25.83
2019-04-25T09:16:55.124Z,26.42
2019-04-25T09:19:28.063Z,26.19
2019-04-25T09:22:03.218Z,25.80
2019-04-25T09:24:37.729Z,25.53
2019-04-25T09:27:09.800Z,26.69
2019-04-25T09:29:41.125Z,25.78
2019-04-25T09:32:16.230Z,26.71
2019-04-25T09:34:52.616Z,26.51
2019-04-25T09:37:29.656Z,25.96
2019-04-25T09:40:10.264Z,27.04
2019-04-25T09:42:44.739Z,26.43
2019-04-25T09:45:30.901Z,24.46
2019-04-25T09:48:10.088Z,25.49
2019-04-25T09:51:01.102Z,30.15
2019-04-25T09:53:34.291Z,30.34
2019-04-25T09:56:10.155Z,28.76
2019-04-25T09:58:53.841Z,25.68
2019-04-25T10:01:28.061Z,25.54
2019-04-25T10:04:03.073Z,26.13
2019-04-25T10:06:38.912Z,26.63
2019-04-25T10:09:15.618Z,23.72
2019-04-25T10:11:46.714Z,23.20
2019-04-25T10:14:37.693Z,23.36
2019-04-25T10:17:10.470Z,23.88
2019-04-25T10:19:45.597Z,23.47
2019-04-25T10:22:20.979Z,24.14
2019-04-25T10:25:00.414Z,22.88
2019-04-25T10:27:26.233Z,23.21
2019-04-25T10:29:57.469Z,22.93
2019-04-25T10:32:28.417Z,24.00
2019-04-25T10:34:59.908Z,22.82
2019-04-25T10:37:30.802Z,23.26
2019-04-25T10:40:01.696Z,22.90
2019-04-25T10:42:34.274Z,23.61
2019-04-25T10:45:20.211Z,24.37
2019-04-25T10:47:40.222Z,24.48
2019-04-25T10:50:11.453Z,26.45
2019-04-25T10:52:46.146Z,27.02
2019-04-25T10:55:18.248Z,24.65
2019-04-25T10:57:49.445Z,23.95
2019-04-25T11:00:25.817Z,22.51
2019-04-25T11:02:59.536Z,22.76
2019-04-25T11:05:30.654Z,24.20
2019-04-25T11:08:02.012Z,24.43
2019-04-25T11:10:34.372Z,24.12
2019-04-25T11:13:07.117Z,25.00
2019-04-25T11:15:42.880Z,25.26
2019-04-25T11:18:15.303Z,24.43
2019-04-25T11:20:48.828Z,24.82
2019-04-25T11:23:19.792Z,23.20
2019-04-25T11:25:54.155Z,23.85
2019-04-25T11:28:26.829Z,24.43
2019-04-25T11:30:58.929Z,25.50
2019-04-25T11:33:33.643Z,25.05
2019-04-25T11:36:05.641Z,26.22
2019-04-25T11:38:54.556Z,25.75
2019-04-25T11:41:34.186Z,25.45
2019-04-25T11:59:26.161Z,25.51
2019-04-25T12:01:58.600Z,26.69
2019-04-25T12:04:29.387Z,26.70
2019-04-25T12:07:00.584Z,26.54
2019-04-25T12:09:33.759Z,26.62
2019-04-25T12:12:07.617Z,24.99
2019-04-25T12:14:38.920Z,24.82
2019-04-25T12:17:12.752Z,25.60
2019-04-25T12:19:46.948Z,25.92
2019-04-25T12:22:21.381Z,26.06
2019-04-25T12:24:54.726Z,25.62
2019-04-25T12:27:26.508Z,26.50
2019-04-25T12:30:00.514Z,27.15
2019-04-25T12:32:35.310Z,25.85
2019-04-25T12:35:10.435Z,26.60
2019-04-25T12:37:41.165Z,27.03
2019-04-25T12:40:14.098Z,27.82
2019-04-25T12:42:46.286Z,27.05
2019-04-25T12:45:24.165Z,26.10
2019-04-25T12:47:59.373Z,25.48
2019-04-25T14:46:50.604Z,25.44
2019-04-25T14:49:30.550Z,26.66
2019-04-25T14:52:06.703Z,26.22
2019-04-25T14:54:42.057Z,25.64
2019-04-25T14:57:17.154Z,26.06
2019-04-25T14:59:48.041Z,26.66
2019-04-25T15:02:19.665Z,26.80
2019-04-25T15:04:50.555Z,27.00
2019-04-25T15:07:23.251Z,27.31
2019-04-25T15:09:54.323Z,26.95
2019-04-25T15:12:25.030Z,27.53
2019-04-25T15:14:56.153Z,27.27
2019-04-25T15:17:28.439Z,27.45
2019-04-25T15:19:59.495Z,27.69
2019-04-25T15:22:30.550Z,27.24
2019-04-25T15:25:01.248Z,27.90
2019-04-25T15:27:33.084Z,29.79
2019-04-25T15:30:06.483Z,30.41
2019-04-25T15:32:38.489Z,28.41
2019-04-25T15:35:11.584Z,28.72
2019-04-25T15:37:49.580Z,27.69
2019-04-25T15:40:31.979Z,26.20
2019-04-25T15:43:17.201Z,29.15
2019-04-25T15:45:58.770Z,30.38
2019-04-25T15:48:29.800Z,28.10
2019-04-25T15:51:00.803Z,28.24
2019-04-25T15:53:32.487Z,29.39
2019-04-25T15:56:03.077Z,29.16
2019-04-25T15:58:35.264Z,28.90
2019-04-25T16:01:07.112Z,27.07
2019-04-25T16:03:38.724Z,26.70
2019-04-25T16:06:10.514Z,26.94
2019-04-25T16:08:41.304Z,26.25
2019-04-25T16:11:12.813Z,26.02
2019-04-25T16:13:43.524Z,26.24
2019-04-25T16:16:17.246Z,26.29
2019-04-25T16:18:49.317Z,26.35
2019-04-25T16:21:21.112Z,26.82
2019-04-25T16:23:51.920Z,26.47
2019-04-25T16:26:23.026Z,28.48
2019-04-25T16:28:54.247Z,27.51
2019-04-25T16:31:26.704Z,26.12
2019-04-25T16:33:58.346Z,26.40
2019-04-25T16:36:29.702Z,26.22
2019-04-25T16:39:02.490Z,26.44
2019-04-25T16:41:34.745Z,25.84
2019-04-25T16:44:08.053Z,26.22
2019-04-25T16:46:39.780Z,27.12
2019-04-25T16:49:10.927Z,27.93
2019-04-25T16:51:42.378Z,28.75
2019-04-25T16:54:13.437Z,28.90
2019-04-25T16:56:44.744Z,30.04
2019-04-25T16:59:17.225Z,31.65
2019-04-25T17:01:48.563Z,32.34
2019-04-25T17:04:20.037Z,32.37
2019-04-25T17:06:51.094Z,31.85
2019-04-25T17:09:22.251Z,31.46
2019-04-25T17:11:53.168Z,32.75
2019-04-25T17:14:28.080Z,32.85
2019-04-25T17:17:12.489Z,33.11
2019-04-25T17:19:49.423Z,33.09
2019-04-25T17:22:22.280Z,32.85
2019-04-25T17:24:53.469Z,33.06
2019-04-25T17:27:24.322Z,32.72
2019-04-25T17:29:55.069Z,33.48
2019-04-25T17:32:46.764Z,33.38
2019-04-25T17:35:14.928Z,33.88
2019-04-25T17:37:53.513Z,34.33
2019-04-25T17:40:26.147Z,35.05
2019-04-25T17:43:10.509Z,36.68
2019-04-25T17:45:34.733Z,39.15
2019-04-25T17:48:05.812Z,41.76
2019-04-25T17:50:37.505Z,41.92
2019-04-25T17:56:37.022Z,43.44
2019-04-25T17:59:09.520Z,43.35
2019-04-25T18:01:40.243Z,44.65
2019-04-25T18:04:11.715Z,43.87
2019-04-25T18:06:43.038Z,44.36
2019-04-25T18:09:15.041Z,47.54
2019-04-25T18:11:46.423Z,50.10
2019-04-25T18:14:19.032Z,51.36
2019-04-25T18:16:50.150Z,52.62
2019-04-25T18:19:38.859Z,52.52
2019-04-25T18:22:11.251Z,51.52
2019-04-25T18:24:46.769Z,52.38
2019-04-25T18:27:28.370Z,53.69
2019-04-25T18:29:59.224Z,53.80
2019-04-25T18:32:32.293Z,54.24
2019-04-25T18:35:05.051Z,54.34
2019-04-25T18:37:43.424Z,54.29
2019-04-25T18:40:16.679Z,54.35
2019-04-25T18:42:55.612Z,54.49
2019-04-25T18:45:29.342Z,54.43
2019-04-25T18:48:00.548Z,56.76
2019-04-25T18:50:33.022Z,56.86
2019-04-25T18:53:11.274Z,57.92
2019-04-25T18:55:46.406Z,58.19
2019-04-25T18:58:41.889Z,57.49
2019-04-25T19:01:27.641Z,58.22
2019-04-25T19:04:10.272Z,58.83
2019-04-25T19:06:53.206Z,59.91
2019-04-25T19:09:14.164Z,61.19
2019-04-25T19:11:45.298Z,61.55
2019-04-25T19:14:16.638Z,63.13
2019-04-25T19:16:47.650Z,64.09
2019-04-25T19:19:20.003Z,64.87
2019-04-25T19:21:50.742Z,64.93
2019-04-25T19:24:22.039Z,64.65
2019-04-25T19:26:52.967Z,64.73
2019-04-25T19:29:26.239Z,63.61
2019-04-25T19:31:57.043Z,63.22
2019-04-25T19:34:27.869Z,63.20
2019-04-25T19:36:59.848Z,64.39
2019-04-25T19:39:32.755Z,66.60
2019-04-25T19:42:21.446Z,66.63
2019-04-25T19:44:52.506Z,67.56
2019-04-25T19:47:24.732Z,68.39
2019-04-25T19:49:55.527Z,68.59
2019-04-25T19:52:29.507Z,68.93
2019-04-25T19:55:00.395Z,68.29
2019-04-25T19:57:31.359Z,68.21
2019-04-25T20:00:03.537Z,68.19
2019-04-25T20:02:37.817Z,68.94
2019-04-25T20:05:13.968Z,67.91
2019-04-25T20:07:48.202Z,68.06
2019-04-25T20:10:39.800Z,68.49
2019-04-25T20:13:10.880Z,69.65
2019-04-25T20:15:44.052Z,69.93
2019-04-25T20:18:14.613Z,69.98
2019-04-25T20:20:46.018Z,69.69
2019-04-25T20:23:17.478Z,70.17
2019-04-25T20:25:48.458Z,70.92
2019-04-25T20:28:20.702Z,72.51
2019-04-25T20:30:52.154Z,73.18
2019-04-25T20:33:22.967Z,73.92
2019-04-25T20:35:53.947Z,73.83
2019-04-25T20:38:25.903Z,73.16
2019-04-25T20:40:56.884Z,73.62
2019-04-25T20:43:28.433Z,74.75
2019-04-25T20:45:59.805Z,74.75
2019-04-25T20:48:30.880Z,75.50
2019-04-25T20:51:02.176Z,73.85
2019-04-25T20:53:34.217Z,71.55
2019-04-25T20:56:05.968Z,71.55
2019-04-25T20:58:37.771Z,73.24
2019-04-25T21:01:08.651Z,74.04
2019-04-25T21:03:40.490Z,74.79
2019-04-25T21:06:17.477Z,75.09
2019-04-25T21:08:49.034Z,73.62
2019-04-25T21:11:20.878Z,74.79
2019-04-25T21:14:02.644Z,75.05
2019-04-25T21:16:56.421Z,76.06
2019-04-25T21:19:28.989Z,75.92
2019-04-25T21:22:01.093Z,76.87
2019-04-25T21:24:32.063Z,77.24
2019-04-25T21:27:03.437Z,77.08
2019-04-25T21:29:34.208Z,77.59
2019-04-25T21:32:05.573Z,77.46
2019-04-25T21:34:36.347Z,77.63
2019-04-25T21:37:09.002Z,77.72
2019-04-25T21:39:48.719Z,77.09
2019-04-25T21:42:27.820Z,77.41
2019-04-25T21:44:58.958Z,77.21
2019-04-25T21:47:30.043Z,74.66
2019-04-25T21:50:01.310Z,76.75
2019-04-25T21:52:34.495Z,76.99
2019-04-25T21:55:07.661Z,77.77
2019-04-25T21:57:39.237Z,78.42
2019-04-25T22:00:13.817Z,78.85
2019-04-25T22:02:46.760Z,79.84
2019-04-25T22:05:17.846Z,79.26
2019-04-25T22:07:49.478Z,78.60
2019-04-25T22:10:22.146Z,78.47
2019-04-25T22:12:53.284Z,77.83
2019-04-25T22:15:25.073Z,77.50
2019-04-25T22:17:58.114Z,76.50
2019-04-25T22:20:29.256Z,77.08
2019-04-25T22:23:00.329Z,77.11
2019-04-25T22:25:31.392Z,78.23
2019-04-25T22:28:03.071Z,78.46
2019-04-25T22:30:34.484Z,77.80
2019-04-25T22:33:19.275Z,78.07
2019-04-25T22:35:55.398Z,77.79
2019-04-25T22:38:26.456Z,78.62
2019-04-25T22:40:59.178Z,79.34
2019-04-25T22:43:32.829Z,79.53
2019-04-25T22:46:05.992Z,80.01
2019-04-25T22:48:50.718Z,79.47
2019-04-25T22:51:21.469Z,78.18
2019-04-25T22:53:52.846Z,77.37
2019-04-25T22:56:23.585Z,75.61
2019-04-25T22:58:54.387Z,75.87
2019-04-25T23:01:33.009Z,75.96
2019-04-25T23:04:11.798Z,76.92
2019-04-25T23:06:43.528Z,77.40
2019-04-25T23:09:14.732Z,77.29
2019-04-25T23:11:46.040Z,77.83
2019-04-25T23:14:17.025Z,78.20
2019-04-25T23:16:47.846Z,78.73
2019-04-25T23:19:18.715Z,77.77
2019-04-25T23:21:49.712Z,78.09
2019-04-25T23:24:22.038Z,78.47
2019-04-25T23:27:05.256Z,78.36
2019-04-25T23:29:36.486Z,79.10
2019-04-25T23:32:08.711Z,78.82
2019-04-25T23:34:39.979Z,77.96
2019-04-25T23:37:10.930Z,78.01
2019-04-25T23:39:42.723Z,77.31
2019-04-25T23:42:15.579Z,77.09
2019-04-25T23:44:46.873Z,77.56
2019-04-25T23:47:17.667Z,78.32
2019-04-25T23:52:38.265Z,78.52
2019-04-25T23:55:09.535Z,78.28
2019-04-25T23:57:41.281Z,77.99
